createdAt,value
2023-05-15T00:02:00.418Z,9.50
2023-05-15T00:04:29.883Z,9.40
2023-05-15T00:06:58.239Z,9.70
2023-05-15T00:09:26.317Z,9.40
2023-05-15T00:11:54.450Z,9.40
2023-05-15T00:14:22.600Z,9.40
2023-05-15T00:16:50.785Z,9.30
2023-05-15T00:19:18.960Z,9.30
2023-05-15T00:21:48.617Z,9.20
2023-05-15T00:24:16.592Z,9.20
2023-05-15T00:26:44.758Z,9.20
2023-05-15T00:29:12.758Z,9.70
2023-05-15T00:31:40.943Z,9.10
2023-05-15T00:34:09.014Z,9.10
2023-05-15T00:36:37.218Z,9.40
2023-05-15T00:39:06.703Z,9.40
2023-05-15T00:41:36.556Z,9.00
2023-05-15T00:44:05.227Z,8.90
2023-05-15T00:46:34.136Z,8.90
2023-05-15T00:49:02.255Z,9.10
2023-05-15T00:51:30.428Z,8.90
2023-05-15T00:53:59.789Z,8.80
2023-05-15T00:56:31.519Z,8.80
2023-05-15T00:59:00.782Z,8.80
2023-05-15T01:01:33.288Z,8.80
2023-05-15T01:04:02.452Z,8.80
2023-05-15T01:06:31.271Z,9.00
2023-05-15T01:09:04.023Z,8.70
2023-05-15T01:11:37.067Z,9.40
2023-05-15T01:14:06.676Z,8.70
2023-05-15T01:16:34.834Z,8.70
2023-05-15T01:19:03.235Z,8.60
2023-05-15T01:22:01.143Z,8.50
2023-05-15T01:24:52.146Z,8.60
2023-05-15T01:27:29.780Z,8.50
2023-05-15T01:30:05.070Z,8.50
2023-05-15T01:32:39.330Z,8.40
2023-05-15T01:35:13.268Z,8.40
2023-05-15T01:37:45.498Z,8.40
2023-05-15T01:40:16.321Z,8.40
2023-05-15T01:42:52.909Z,8.40
2023-05-15T01:45:24.982Z,8.30
2023-05-15T01:47:55.471Z,8.30
2023-05-15T01:50:24.005Z,8.30
2023-05-15T01:52:55.628Z,8.30
2023-05-15T01:55:26.695Z,8.30
2023-05-15T01:57:58.353Z,8.30
2023-05-15T02:00:27.195Z,8.30
2023-05-15T02:02:55.962Z,8.20
2023-05-15T02:05:24.894Z,8.20
2023-05-15T02:07:53.637Z,8.10
2023-05-15T02:10:22.844Z,8.10
2023-05-15T02:12:51.273Z,8.20
2023-05-15T02:15:23.157Z,8.20
2023-05-15T02:17:51.622Z,8.10
2023-05-15T02:20:19.778Z,8.00
2023-05-15T02:22:47.804Z,8.20
2023-05-15T02:25:16.096Z,8.00
2023-05-15T02:27:49.663Z,8.10
2023-05-15T02:30:30.518Z,7.90
2023-05-15T02:33:08.960Z,7.90
2023-05-15T02:35:43.373Z,7.90
2023-05-15T02:38:17.293Z,7.80
2023-05-15T02:40:48.789Z,7.90
2023-05-15T02:43:18.212Z,7.80
2023-05-15T02:45:48.446Z,8.30
2023-05-15T02:48:17.308Z,7.90
2023-05-15T02:50:45.922Z,7.90
2023-05-15T02:53:15.590Z,7.80
2023-05-15T02:55:43.642Z,7.70
2023-05-15T02:58:11.923Z,7.70
2023-05-15T03:00:40.093Z,7.70
2023-05-15T03:03:09.602Z,7.70
2023-05-15T03:05:37.716Z,7.80
2023-05-15T03:08:07.044Z,7.60
2023-05-15T03:10:35.114Z,7.60
2023-05-15T03:13:04.067Z,7.60
2023-05-15T03:15:32.330Z,7.60
2023-05-15T03:18:00.447Z,7.60
2023-05-15T03:20:29.959Z,7.50
2023-05-15T03:22:58.089Z,7.50
2023-05-15T03:25:26.681Z,7.70
2023-05-15T03:27:55.008Z,8.00
2023-05-15T03:30:23.139Z,7.90
2023-05-15T03:32:51.321Z,7.50
2023-05-15T03:35:19.407Z,7.60
2023-05-15T03:37:48.925Z,7.50
2023-05-15T03:40:17.113Z,7.40
2023-05-15T03:42:45.130Z,7.40
2023-05-15T03:45:13.287Z,7.40
2023-05-15T03:47:42.869Z,7.40
2023-05-15T03:50:12.949Z,7.40
2023-05-15T03:52:42.300Z,7.40
2023-05-15T03:55:12.228Z,7.70
2023-05-15T03:57:41.530Z,7.40
2023-05-15T04:00:11.214Z,7.40
2023-05-15T04:02:40.277Z,7.40
2023-05-15T04:05:09.151Z,7.40
2023-05-15T04:07:38.263Z,7.40
2023-05-15T04:10:07.248Z,7.50
2023-05-15T04:12:37.204Z,7.50
2023-05-15T04:15:19.007Z,8.00
2023-05-15T04:17:48.229Z,7.60
2023-05-15T04:20:18.228Z,7.60
2023-05-15T04:22:46.904Z,7.60
2023-05-15T04:25:16.155Z,7.70
2023-05-15T04:27:45.988Z,7.70
2023-05-15T04:30:14.876Z,7.70
2023-05-15T04:32:43.235Z,7.80
2023-05-15T04:35:13.513Z,7.80
2023-05-15T04:37:42.756Z,7.80
2023-05-15T04:40:12.285Z,7.80
2023-05-15T04:42:40.391Z,7.80
2023-05-15T04:45:10.942Z,7.90
2023-05-15T04:47:39.232Z,8.00
2023-05-15T04:50:09.207Z,8.00
2023-05-15T04:52:37.324Z,8.10
2023-05-15T04:55:06.246Z,8.30
2023-05-15T04:57:34.391Z,8.20
2023-05-15T05:00:02.469Z,8.20
2023-05-15T05:02:31.921Z,8.30
2023-05-15T05:05:00.065Z,8.50
2023-05-15T05:07:28.155Z,8.40
2023-05-15T05:09:56.260Z,8.40
2023-05-15T05:12:25.931Z,8.50
2023-05-15T05:14:56.483Z,8.60
2023-05-15T05:17:24.791Z,8.70
2023-05-15T05:19:54.241Z,8.70
2023-05-15T05:22:22.350Z,8.90
2023-05-15T05:24:50.388Z,9.20
2023-05-15T05:27:18.486Z,9.20
2023-05-15T05:29:46.811Z,9.30
2023-05-15T05:32:14.872Z,9.30
2023-05-15T05:34:42.883Z,9.40
2023-05-15T05:37:12.233Z,9.60
2023-05-15T05:39:40.341Z,9.70
2023-05-15T05:42:08.503Z,9.70
2023-05-15T05:44:36.606Z,9.90
2023-05-15T05:47:04.921Z,10.00
2023-05-15T05:49:32.991Z,10.10
2023-05-15T05:52:07.212Z,10.30
2023-05-15T05:54:37.140Z,10.30
2023-05-15T05:57:05.699Z,10.50
2023-05-15T05:59:33.753Z,10.50
2023-05-15T06:02:01.796Z,10.60
2023-05-15T06:04:29.989Z,10.70
2023-05-15T06:06:58.227Z,10.90
2023-05-15T06:09:26.409Z,11.00
2023-05-15T06:11:56.116Z,11.10
2023-05-15T06:14:24.362Z,11.30
2023-05-15T06:16:52.375Z,11.40
2023-05-15T06:19:21.725Z,11.50
2023-05-15T06:21:49.830Z,11.60
2023-05-15T06:24:17.827Z,11.70
2023-05-15T06:26:45.977Z,11.80
2023-05-15T06:29:15.458Z,12.00
2023-05-15T06:31:43.592Z,12.10
2023-05-15T06:34:11.667Z,12.20
2023-05-15T06:37:13.052Z,12.20
2023-05-15T06:39:41.360Z,12.50
2023-05-15T06:42:09.494Z,12.70
2023-05-15T06:44:38.946Z,12.80
2023-05-15T06:47:07.810Z,12.90
2023-05-15T06:49:35.981Z,13.10
2023-05-15T06:52:04.352Z,13.20
2023-05-15T06:54:32.689Z,13.30
2023-05-15T06:57:00.919Z,13.50
2023-05-15T06:59:28.949Z,13.50
2023-05-15T07:01:58.463Z,13.70
2023-05-15T07:04:27.406Z,13.80
2023-05-15T07:06:55.576Z,14.00
2023-05-15T07:09:23.711Z,14.10
2023-05-15T07:11:51.843Z,14.30
2023-05-15T07:14:20.009Z,14.30
2023-05-15T07:16:48.185Z,14.40
2023-05-15T07:19:21.629Z,14.60
2023-05-15T07:21:49.994Z,14.70
2023-05-15T07:24:18.099Z,14.90
2023-05-15T07:26:57.461Z,15.00
2023-05-15T07:29:26.611Z,15.20
2023-05-15T07:31:54.873Z,15.30
2023-05-15T07:34:24.837Z,15.40
2023-05-15T07:36:52.925Z,15.50
2023-05-15T07:39:21.074Z,15.60
2023-05-15T07:41:49.253Z,15.70
2023-05-15T07:44:17.484Z,15.80
2023-05-15T07:46:46.195Z,15.90
2023-05-15T07:49:14.479Z,16.10
2023-05-15T07:51:43.939Z,16.10
2023-05-15T07:54:12.029Z,16.20
2023-05-15T07:56:40.353Z,16.40
2023-05-15T07:59:08.686Z,16.60
2023-05-15T08:01:36.861Z,16.80
2023-05-15T08:04:09.012Z,17.00
2023-05-15T08:06:38.392Z,17.10
2023-05-15T08:09:08.066Z,17.30
2023-05-15T08:11:36.591Z,17.60
2023-05-15T08:14:04.802Z,18.00
2023-05-15T08:16:33.037Z,18.30
2023-05-15T08:19:05.175Z,18.70
2023-05-15T08:21:33.389Z,19.20
2023-05-15T08:24:01.640Z,19.60
2023-05-15T08:26:31.099Z,20.00
2023-05-15T08:28:59.195Z,20.80
2023-05-15T08:31:27.343Z,21.80
2023-05-15T08:33:55.665Z,22.70
2023-05-15T08:36:23.990Z,23.60
2023-05-15T08:38:52.158Z,24.20
2023-05-15T08:41:39.924Z,25.10
2023-05-15T08:44:12.272Z,25.70
2023-05-15T08:46:40.789Z,26.50
2023-05-15T08:49:15.760Z,27.00
2023-05-15T08:51:44.176Z,27.60
2023-05-15T08:54:12.729Z,28.30
2023-05-15T08:56:41.022Z,28.80
2023-05-15T08:59:10.493Z,28.90
2023-05-15T09:01:39.523Z,29.20
2023-05-15T09:04:07.806Z,29.20
2023-05-15T09:06:37.202Z,29.80
2023-05-15T09:09:06.436Z,30.30
2023-05-15T09:11:34.972Z,30.30
2023-05-15T09:14:03.240Z,30.30
2023-05-15T09:16:32.771Z,30.50
2023-05-15T09:19:01.780Z,30.80
2023-05-15T09:21:33.280Z,31.10
2023-05-15T09:24:20.293Z,30.80
2023-05-15T09:27:02.871Z,29.90
2023-05-15T09:29:32.156Z,28.80
2023-05-15T09:32:07.251Z,28.70
2023-05-15T09:34:37.164Z,28.50
2023-05-15T09:37:08.050Z,28.10
2023-05-15T09:39:41.635Z,27.90
2023-05-15T09:42:11.397Z,27.90
2023-05-15T09:44:43.735Z,28.70
2023-05-15T09:47:14.962Z,29.50
2023-05-15T09:49:46.922Z,30.40
2023-05-15T09:52:17.502Z,29.80
2023-05-15T09:54:49.478Z,28.90
2023-05-15T09:57:23.285Z,28.90
2023-05-15T09:59:54.471Z,29.50
2023-05-15T10:02:32.102Z,30.20
2023-05-15T10:05:00.855Z,30.10
2023-05-15T10:07:30.261Z,28.80
2023-05-15T10:09:58.532Z,28.70
2023-05-15T10:12:26.858Z,29.30
2023-05-15T10:14:57.079Z,30.30
2023-05-15T10:17:27.892Z,30.30
2023-05-15T10:19:59.830Z,30.70
2023-05-15T10:22:31.619Z,31.10
2023-05-15T10:25:04.100Z,31.50
2023-05-15T10:27:35.392Z,31.60
2023-05-15T10:30:04.762Z,31.80
2023-05-15T10:32:35.131Z,32.40
2023-05-15T10:35:04.302Z,32.90
2023-05-15T10:37:33.196Z,32.20
2023-05-15T10:40:02.731Z,32.40
2023-05-15T10:42:31.420Z,32.60
2023-05-15T10:45:02.730Z,32.60
2023-05-15T10:47:33.082Z,31.30
2023-05-15T10:50:01.318Z,29.90
2023-05-15T10:52:29.486Z,29.20
2023-05-15T10:54:57.851Z,29.20
2023-05-15T10:57:25.993Z,28.60
2023-05-15T10:59:54.089Z,28.10
2023-05-15T11:02:24.170Z,27.50
2023-05-15T11:05:01.042Z,26.90
2023-05-15T11:07:29.255Z,26.30
2023-05-15T11:09:57.746Z,25.70
2023-05-15T11:12:27.135Z,25.00
2023-05-15T11:15:25.956Z,24.30
2023-05-15T11:18:06.383Z,23.80
2023-05-15T11:20:41.391Z,23.50
2023-05-15T11:23:10.493Z,23.30
2023-05-15T11:25:39.483Z,23.20
2023-05-15T11:28:22.833Z,23.20
2023-05-15T11:30:55.014Z,23.40
2023-05-15T11:33:25.171Z,23.80
2023-05-15T11:36:03.530Z,23.80
2023-05-15T11:38:40.404Z,23.60
2023-05-15T11:41:20.089Z,23.20
2023-05-15T11:43:49.792Z,23.00
2023-05-15T11:46:19.242Z,22.70
2023-05-15T11:48:49.617Z,22.50
2023-05-15T11:51:22.151Z,22.40
2023-05-15T11:53:53.225Z,22.50
2023-05-15T11:56:24.251Z,22.50
2023-05-15T11:58:54.051Z,22.50
2023-05-15T12:01:23.245Z,22.70
2023-05-15T12:03:54.932Z,22.70
2023-05-15T12:06:25.064Z,22.50
2023-05-15T12:08:54.498Z,22.40
2023-05-15T12:11:23.987Z,22.90
2023-05-15T12:13:54.098Z,23.10
2023-05-15T12:16:26.132Z,23.20
2023-05-15T12:18:54.760Z,22.90
2023-05-15T12:21:24.272Z,22.50
2023-05-15T12:24:06.428Z,21.80
2023-05-15T12:26:36.188Z,21.20
2023-05-15T12:29:05.063Z,20.80
2023-05-15T12:31:34.758Z,20.50
2023-05-15T12:34:03.029Z,20.20
2023-05-15T12:36:32.686Z,19.90
2023-05-15T12:39:08.191Z,19.50
2023-05-15T12:41:38.876Z,19.10
2023-05-15T12:44:07.269Z,18.60
2023-05-15T12:46:35.439Z,18.20
2023-05-15T12:49:04.275Z,18.10
2023-05-15T12:51:33.835Z,18.20
2023-05-15T12:54:02.078Z,18.30
2023-05-15T12:56:31.271Z,18.20
2023-05-15T12:58:59.874Z,18.00
2023-05-15T13:01:29.816Z,17.90
2023-05-15T13:03:58.717Z,17.80
2023-05-15T13:06:41.953Z,17.70
2023-05-15T13:09:16.127Z,17.60
2023-05-15T13:11:45.335Z,17.60
2023-05-15T13:14:17.859Z,17.40
2023-05-15T13:16:47.693Z,17.30
2023-05-15T13:19:16.007Z,17.20
2023-05-15T13:21:45.658Z,17.00
2023-05-15T13:24:15.483Z,17.00
2023-05-15T13:26:43.755Z,17.00
2023-05-15T13:29:12.066Z,17.00
2023-05-15T13:31:40.559Z,17.00
2023-05-15T13:34:09.237Z,17.00
2023-05-15T13:36:38.021Z,16.90
2023-05-15T13:39:06.630Z,16.80
2023-05-15T13:41:38.839Z,16.90
2023-05-15T13:44:07.446Z,16.90
2023-05-15T13:46:35.721Z,17.00
2023-05-15T13:49:05.643Z,17.00
2023-05-15T13:51:34.482Z,17.00
2023-05-15T13:54:02.765Z,17.00
2023-05-15T13:56:31.296Z,16.90
2023-05-15T13:59:01.002Z,17.00
2023-05-15T14:01:29.432Z,17.20
2023-05-15T14:03:57.953Z,17.30
2023-05-15T14:06:27.944Z,17.50
2023-05-15T14:08:56.191Z,18.10
2023-05-15T14:11:24.388Z,18.90
2023-05-15T14:13:52.643Z,19.40
2023-05-15T14:16:22.353Z,19.50
2023-05-15T14:18:50.702Z,19.40
2023-05-15T14:21:19.128Z,19.40
2023-05-15T14:23:47.849Z,19.70
2023-05-15T14:26:16.350Z,20.10
2023-05-15T14:28:44.487Z,20.10
2023-05-15T14:31:12.905Z,19.80
2023-05-15T14:33:42.793Z,19.80
2023-05-15T14:36:12.532Z,19.60
2023-05-15T14:38:42.368Z,19.20
2023-05-15T14:41:12.395Z,19.30
2023-05-15T14:43:41.390Z,19.40
2023-05-15T14:46:11.436Z,19.50
2023-05-15T14:48:39.779Z,19.50
2023-05-15T14:51:09.502Z,19.40
2023-05-15T14:53:37.904Z,19.90
2023-05-15T14:56:06.560Z,20.40
2023-05-15T14:58:34.819Z,20.60
2023-05-15T15:01:03.745Z,20.50
2023-05-15T15:03:34.034Z,20.20
2023-05-15T15:06:02.382Z,19.70
2023-05-15T15:08:31.888Z,19.30
2023-05-15T15:11:00.188Z,18.70
2023-05-15T15:13:30.075Z,18.20
2023-05-15T15:15:58.678Z,18.10
2023-05-15T15:18:26.830Z,17.90
2023-05-15T15:20:55.722Z,18.00
2023-05-15T15:23:24.201Z,18.30
2023-05-15T15:25:53.770Z,18.90
2023-05-15T15:28:21.974Z,19.50
2023-05-15T15:30:50.328Z,20.00
2023-05-15T15:33:18.560Z,20.40
2023-05-15T15:35:46.712Z,20.50
2023-05-15T15:38:14.875Z,20.80
2023-05-15T15:40:43.045Z,20.90
2023-05-15T15:43:12.707Z,20.70
2023-05-15T15:45:41.187Z,20.60
2023-05-15T15:48:09.485Z,20.70
2023-05-15T15:50:37.675Z,20.80
2023-05-15T15:53:08.703Z,20.90
2023-05-15T15:55:36.903Z,20.80
2023-05-15T15:58:05.007Z,20.50
2023-05-15T16:00:34.521Z,20.10
2023-05-15T16:03:02.758Z,19.70
2023-05-15T16:05:31.250Z,19.40
2023-05-15T16:07:59.551Z,19.00
2023-05-15T16:10:27.866Z,18.60
2023-05-15T16:12:56.945Z,18.50
2023-05-15T16:15:25.312Z,18.60
2023-05-15T16:17:55.263Z,18.80
2023-05-15T16:20:24.563Z,19.00
2023-05-15T16:22:53.193Z,19.20
2023-05-15T16:25:21.810Z,19.50
2023-05-15T16:27:50.108Z,19.60
2023-05-15T16:30:18.301Z,19.40
2023-05-15T16:32:47.044Z,19.50
2023-05-15T16:35:16.622Z,19.60
2023-05-15T16:37:44.933Z,19.50
2023-05-15T16:40:13.835Z,19.40
2023-05-15T16:42:43.059Z,19.20
2023-05-15T16:45:11.624Z,19.00
2023-05-15T16:47:42.514Z,18.70
2023-05-15T16:50:11.283Z,18.70
2023-05-15T16:52:45.506Z,18.60
2023-05-15T16:55:15.660Z,18.70
2023-05-15T16:57:43.934Z,18.70
2023-05-15T17:00:13.684Z,18.70
2023-05-15T17:02:42.929Z,18.70
2023-05-15T17:05:11.860Z,18.50
2023-05-15T17:07:42.859Z,18.40
2023-05-15T17:10:12.713Z,18.20
2023-05-15T17:12:41.548Z,18.00
2023-05-15T17:15:10.800Z,17.90
2023-05-15T17:17:39.228Z,17.80
2023-05-15T17:20:08.436Z,17.60
2023-05-15T17:22:36.846Z,17.60
2023-05-15T17:25:07.339Z,17.50
2023-05-15T17:27:39.736Z,17.40
2023-05-15T17:30:09.619Z,17.30
2023-05-15T17:32:38.396Z,17.20
2023-05-15T17:35:08.149Z,17.10
2023-05-15T17:37:36.354Z,17.00
2023-05-15T17:40:06.994Z,17.00
2023-05-15T17:42:36.046Z,17.00
2023-05-15T17:45:04.430Z,17.00
2023-05-15T17:47:32.669Z,17.00
2023-05-15T17:50:00.797Z,17.00
2023-05-15T17:52:29.207Z,16.90
2023-05-15T17:54:57.639Z,16.90
2023-05-15T17:57:28.405Z,16.80
2023-05-15T17:59:56.579Z,16.80
2023-05-15T18:02:24.904Z,16.70
2023-05-15T18:04:53.279Z,16.70
2023-05-15T18:07:22.020Z,16.70
2023-05-15T18:09:50.202Z,16.60
2023-05-15T18:12:19.209Z,16.60
2023-05-15T18:14:48.828Z,16.60
2023-05-15T18:17:17.304Z,16.50
2023-05-15T18:19:45.714Z,16.40
2023-05-15T18:22:13.912Z,16.40
2023-05-15T18:24:42.708Z,16.30
2023-05-15T18:27:12.159Z,16.20
2023-05-15T18:29:40.498Z,16.20
2023-05-15T18:32:11.055Z,16.10
2023-05-15T18:34:39.922Z,16.10
2023-05-15T18:37:08.582Z,16.00
2023-05-15T18:39:39.281Z,15.90
2023-05-15T18:42:08.347Z,15.80
2023-05-15T18:44:36.529Z,15.70
2023-05-15T18:47:04.844Z,15.60
2023-05-15T18:49:35.028Z,15.50
2023-05-15T18:52:03.202Z,15.40
2023-05-15T18:54:31.346Z,15.30
2023-05-15T18:56:59.547Z,15.20
2023-05-15T18:59:28.435Z,15.10
2023-05-15T19:01:56.700Z,15.10
2023-05-15T19:04:27.479Z,15.10
2023-05-15T19:06:57.038Z,15.10
2023-05-15T19:09:26.489Z,15.10
2023-05-15T19:11:54.703Z,15.10
2023-05-15T19:14:22.928Z,15.20
2023-05-15T19:16:51.109Z,15.20
2023-05-15T19:19:19.830Z,15.20
2023-05-15T19:21:50.782Z,15.30
2023-05-15T19:24:21.871Z,15.30
2023-05-15T19:26:49.978Z,15.20
2023-05-15T19:29:18.445Z,15.20
2023-05-15T19:31:46.996Z,15.10
2023-05-15T19:34:15.410Z,15.10
2023-05-15T19:36:43.530Z,15.10
2023-05-15T19:39:11.777Z,15.00
2023-05-15T19:41:42.772Z,14.90
2023-05-15T19:44:11.269Z,14.90
2023-05-15T19:46:40.025Z,14.80
2023-05-15T19:49:08.260Z,14.60
2023-05-15T19:51:36.466Z,14.50
2023-05-15T19:54:04.705Z,14.30
2023-05-15T19:56:33.020Z,14.20
2023-05-15T19:59:02.605Z,14.10
2023-05-15T20:01:31.277Z,14.00
2023-05-15T20:03:59.623Z,13.90
2023-05-15T20:06:28.332Z,13.80
2023-05-15T20:08:56.534Z,13.80
2023-05-15T20:11:24.715Z,13.70
2023-05-15T20:13:52.876Z,13.60
2023-05-15T20:16:23.182Z,13.50
2023-05-15T20:18:54.811Z,13.50
2023-05-15T20:21:23.160Z,13.40
2023-05-15T20:23:51.424Z,13.30
2023-05-15T20:26:22.455Z,13.20
2023-05-15T20:28:50.880Z,13.10
2023-05-15T20:31:20.362Z,13.10
2023-05-15T20:33:49.919Z,13.00
2023-05-15T20:36:18.539Z,12.90
2023-05-15T20:38:47.172Z,12.90
2023-05-15T20:41:16.546Z,12.90
2023-05-15T20:43:44.798Z,12.80
2023-05-15T20:46:13.050Z,12.80
2023-05-15T20:48:43.485Z,12.70
2023-05-15T20:51:15.001Z,12.70
2023-05-15T20:53:43.922Z,12.70
2023-05-15T20:56:12.354Z,12.60
2023-05-15T20:58:40.860Z,12.60
2023-05-15T21:01:09.290Z,12.60
2023-05-15T21:03:37.532Z,12.60
2023-05-15T21:06:06.090Z,12.50
2023-05-15T21:08:35.546Z,12.50
2023-05-15T21:11:03.849Z,12.50
2023-05-15T21:13:32.029Z,12.50
2023-05-15T21:16:00.075Z,12.50
2023-05-15T21:18:28.158Z,12.50
2023-05-15T21:20:56.427Z,12.70
2023-05-15T21:23:24.438Z,12.50
2023-05-15T21:25:54.618Z,12.50
2023-05-15T21:28:22.655Z,12.50
2023-05-15T21:30:50.793Z,12.40
2023-05-15T21:33:18.991Z,12.40
2023-05-15T21:35:47.482Z,12.50
2023-05-15T21:38:15.566Z,12.40
2023-05-15T21:40:44.067Z,12.40
2023-05-15T21:43:13.541Z,12.40
2023-05-15T21:45:41.628Z,12.50
2023-05-15T21:48:09.826Z,12.50
2023-05-15T21:50:37.932Z,12.50
2023-05-15T21:53:06.023Z,12.60
2023-05-15T21:55:34.033Z,12.50
2023-05-15T21:58:02.034Z,12.70
2023-05-15T22:00:31.653Z,12.50
2023-05-15T22:02:59.834Z,12.50
2023-05-15T22:05:28.084Z,12.50
2023-05-15T22:07:56.223Z,12.50
2023-05-15T22:10:24.440Z,12.50
2023-05-15T22:12:52.918Z,12.50
2023-05-15T22:15:21.093Z,12.50
2023-05-15T22:17:50.812Z,12.40
2023-05-15T22:20:21.049Z,12.40
2023-05-15T22:22:50.109Z,12.40
2023-05-15T22:25:18.363Z,12.30
2023-05-15T22:27:48.698Z,12.30
2023-05-15T22:30:17.548Z,12.20
2023-05-15T22:32:46.605Z,12.30
2023-05-15T22:35:16.647Z,12.20
2023-05-15T22:37:45.542Z,12.20
2023-05-15T22:40:14.348Z,12.20
2023-05-15T22:42:42.626Z,12.20
2023-05-15T22:45:11.547Z,12.20
2023-05-15T22:47:40.733Z,12.10
2023-05-15T22:50:10.254Z,12.10
2023-05-15T22:52:39.917Z,12.10
2023-05-15T22:55:10.383Z,12.10
2023-05-15T22:57:38.496Z,12.10
2023-05-15T23:00:08.129Z,12.10
2023-05-15T23:02:38.150Z,12.10
2023-05-15T23:05:06.832Z,12.00
2023-05-15T23:07:34.942Z,12.10
2023-05-15T23:10:04.722Z,12.10
2023-05-15T23:12:32.895Z,12.00
2023-05-15T23:15:00.932Z,12.00
2023-05-15T23:17:28.996Z,11.90
2023-05-15T23:19:57.053Z,12.00
2023-05-15T23:22:25.577Z,11.90
2023-05-15T23:24:53.553Z,11.90
2023-05-15T23:27:22.945Z,11.90
2023-05-15T23:29:51.011Z,12.00
2023-05-15T23:32:19.021Z,11.90
2023-05-15T23:34:47.083Z,11.90
2023-05-15T23:37:16.678Z,11.90
2023-05-15T23:39:44.753Z,11.80
2023-05-15T23:42:12.760Z,11.80
2023-05-15T23:44:42.147Z,11.80
2023-05-15T23:47:10.531Z,11.80
2023-05-15T23:49:38.696Z,11.80
2023-05-15T23:52:07.788Z,11.80
2023-05-15T23:54:35.947Z,11.80
2023-05-15T23:57:04.002Z,11.70
2023-05-15T23:59:32.105Z,11.60
